sensor_id;sensor_type;location;lat;lon;timestamp;P1;durP1;ratioP1;P2;durP2;ratioP2
6203;SDS011;3135;42.602;23.468;2023-05-07T00:01:04;2.88;;;2.53;;
6203;SDS011;3135;42.602;23.468;2023-05-07T00:03:31;3.13;;;2.50;;
6203;SDS011;3135;42.602;23.468;2023-05-07T00:05:57;2.95;;;2.50;;
6203;SDS011;3135;42.602;23.468;2023-05-07T00:08:23;2.53;;;2.33;;
6203;SDS011;3135;42.602;23.468;2023-05-07T00:10:48;3.90;;;2.73;;
6203;SDS011;3135;42.602;23.468;2023-05-07T00:13:14;3.27;;;2.50;;
6203;SDS011;3135;42.602;23.468;2023-05-07T00:15:39;3.88;;;2.78;;
6203;SDS011;3135;42.602;23.468;2023-05-07T00:18:05;4.70;;;2.83;;
6203;SDS011;3135;42.602;23.468;2023-05-07T00:20:30;2.63;;;2.43;;
6203;SDS011;3135;42.602;23.468;2023-05-07T00:22:56;4.40;;;2.70;;
6203;SDS011;3135;42.602;23.468;2023-05-07T00:25:21;2.63;;;2.43;;
6203;SDS011;3135;42.602;23.468;2023-05-07T00:27:47;3.55;;;2.53;;
6203;SDS011;3135;42.602;23.468;2023-05-07T00:30:12;2.70;;;2.40;;
6203;SDS011;3135;42.602;23.468;2023-05-07T00:32:38;49.45;;;19.02;;
6203;SDS011;3135;42.602;23.468;2023-05-07T00:35:04;41.58;;;15.70;;
6203;SDS011;3135;42.602;23.468;2023-05-07T00:37:30;8.93;;;5.07;;
6203;SDS011;3135;42.602;23.468;2023-05-07T00:39:56;4.47;;;3.30;;
6203;SDS011;3135;42.602;23.468;2023-05-07T00:42:22;3.63;;;2.92;;
6203;SDS011;3135;42.602;23.468;2023-05-07T00:44:47;3.03;;;2.83;;
6203;SDS011;3135;42.602;23.468;2023-05-07T00:47:13;3.57;;;2.90;;
6203;SDS011;3135;42.602;23.468;2023-05-07T00:49:42;3.53;;;2.40;;
6203;SDS011;3135;42.602;23.468;2023-05-07T00:52:09;5.40;;;2.55;;
6203;SDS011;3135;42.602;23.468;2023-05-07T00:54:38;3.15;;;2.60;;
6203;SDS011;3135;42.602;23.468;2023-05-07T00:57:05;3.92;;;2.70;;
6203;SDS011;3135;42.602;23.468;2023-05-07T00:59:31;4.68;;;4.18;;
6203;SDS011;3135;42.602;23.468;2023-05-07T01:01:57;3.57;;;3.00;;
6203;SDS011;3135;42.602;23.468;2023-05-07T01:04:22;4.13;;;3.00;;
6203;SDS011;3135;42.602;23.468;2023-05-07T01:06:48;3.93;;;2.80;;
6203;SDS011;3135;42.602;23.468;2023-05-07T01:09:14;3.85;;;3.03;;
6203;SDS011;3135;42.602;23.468;2023-05-07T01:11:40;4.65;;;3.65;;
6203;SDS011;3135;42.602;23.468;2023-05-07T01:14:06;5.80;;;3.63;;
6203;SDS011;3135;42.602;23.468;2023-05-07T01:16:33;4.88;;;3.70;;
6203;SDS011;3135;42.602;23.468;2023-05-07T01:18:59;6.32;;;4.40;;
6203;SDS011;3135;42.602;23.468;2023-05-07T01:21:25;5.13;;;4.20;;
6203;SDS011;3135;42.602;23.468;2023-05-07T01:23:52;8.70;;;4.80;;
6203;SDS011;3135;42.602;23.468;2023-05-07T01:26:20;8.10;;;4.72;;
6203;SDS011;3135;42.602;23.468;2023-05-07T01:28:47;7.22;;;4.60;;
6203;SDS011;3135;42.602;23.468;2023-05-07T01:31:12;12.37;;;6.83;;
6203;SDS011;3135;42.602;23.468;2023-05-07T01:33:39;13.80;;;6.97;;
6203;SDS011;3135;42.602;23.468;2023-05-07T01:36:06;9.40;;;5.90;;
6203;SDS011;3135;42.602;23.468;2023-05-07T01:38:34;12.70;;;6.72;;
6203;SDS011;3135;42.602;23.468;2023-05-07T01:41:02;12.60;;;6.90;;
6203;SDS011;3135;42.602;23.468;2023-05-07T01:43:29;11.52;;;7.25;;
6203;SDS011;3135;42.602;23.468;2023-05-07T01:45:55;12.47;;;7.07;;
6203;SDS011;3135;42.602;23.468;2023-05-07T01:48:22;15.98;;;7.90;;
6203;SDS011;3135;42.602;23.468;2023-05-07T01:50:49;12.40;;;6.60;;
6203;SDS011;3135;42.602;23.468;2023-05-07T01:53:16;12.93;;;7.20;;
6203;SDS011;3135;42.602;23.468;2023-05-07T01:55:41;13.45;;;7.80;;
6203;SDS011;3135;42.602;23.468;2023-05-07T01:58:07;12.93;;;7.77;;
6203;SDS011;3135;42.602;23.468;2023-05-07T02:00:32;13.97;;;7.53;;
6203;SDS011;3135;42.602;23.468;2023-05-07T02:02:58;13.43;;;8.43;;
6203;SDS011;3135;42.602;23.468;2023-05-07T02:05:23;16.60;;;9.00;;
6203;SDS011;3135;42.602;23.468;2023-05-07T02:07:49;17.38;;;9.60;;
6203;SDS011;3135;42.602;23.468;2023-05-07T02:10:14;16.73;;;9.37;;
6203;SDS011;3135;42.602;23.468;2023-05-07T02:12:40;15.35;;;9.20;;
6203;SDS011;3135;42.602;23.468;2023-05-07T02:15:05;18.55;;;10.00;;
6203;SDS011;3135;42.602;23.468;2023-05-07T02:17:31;19.48;;;9.63;;
6203;SDS011;3135;42.602;23.468;2023-05-07T02:19:58;19.60;;;10.15;;
6203;SDS011;3135;42.602;23.468;2023-05-07T02:22:24;18.10;;;10.65;;
6203;SDS011;3135;42.602;23.468;2023-05-07T02:24:50;24.52;;;11.55;;
6203;SDS011;3135;42.602;23.468;2023-05-07T02:27:16;18.35;;;9.75;;
6203;SDS011;3135;42.602;23.468;2023-05-07T02:29:41;21.20;;;10.70;;
6203;SDS011;3135;42.602;23.468;2023-05-07T02:32:07;19.33;;;10.60;;
6203;SDS011;3135;42.602;23.468;2023-05-07T02:34:32;21.58;;;10.95;;
6203;SDS011;3135;42.602;23.468;2023-05-07T02:36:58;19.27;;;10.48;;
6203;SDS011;3135;42.602;23.468;2023-05-07T02:39:23;20.03;;;10.07;;
6203;SDS011;3135;42.602;23.468;2023-05-07T02:41:49;20.53;;;10.50;;
6203;SDS011;3135;42.602;23.468;2023-05-07T02:44:14;20.07;;;10.53;;
6203;SDS011;3135;42.602;23.468;2023-05-07T02:46:39;25.90;;;11.30;;
6203;SDS011;3135;42.602;23.468;2023-05-07T02:49:05;21.98;;;10.88;;
6203;SDS011;3135;42.602;23.468;2023-05-07T02:51:31;18.83;;;9.90;;
6203;SDS011;3135;42.602;23.468;2023-05-07T02:53:56;23.00;;;10.87;;
6203;SDS011;3135;42.602;23.468;2023-05-07T02:56:22;20.13;;;10.20;;
6203;SDS011;3135;42.602;23.468;2023-05-07T02:58:47;19.87;;;9.90;;
6203;SDS011;3135;42.602;23.468;2023-05-07T03:01:13;17.83;;;9.30;;
6203;SDS011;3135;42.602;23.468;2023-05-07T03:03:39;18.97;;;9.70;;
6203;SDS011;3135;42.602;23.468;2023-05-07T03:06:05;19.25;;;9.98;;
6203;SDS011;3135;42.602;23.468;2023-05-07T03:08:31;19.77;;;10.15;;
6203;SDS011;3135;42.602;23.468;2023-05-07T03:10:57;18.83;;;9.48;;
6203;SDS011;3135;42.602;23.468;2023-05-07T03:13:22;17.80;;;9.82;;
6203;SDS011;3135;42.602;23.468;2023-05-07T03:15:48;19.03;;;10.20;;
6203;SDS011;3135;42.602;23.468;2023-05-07T03:18:13;19.07;;;9.87;;
6203;SDS011;3135;42.602;23.468;2023-05-07T03:20:39;19.25;;;10.13;;
6203;SDS011;3135;42.602;23.468;2023-05-07T03:23:04;19.30;;;10.18;;
6203;SDS011;3135;42.602;23.468;2023-05-07T03:25:30;16.77;;;9.18;;
6203;SDS011;3135;42.602;23.468;2023-05-07T03:27:56;19.73;;;9.65;;
6203;SDS011;3135;42.602;23.468;2023-05-07T03:30:22;15.23;;;8.37;;
6203;SDS011;3135;42.602;23.468;2023-05-07T03:32:47;18.07;;;9.10;;
6203;SDS011;3135;42.602;23.468;2023-05-07T03:35:12;18.30;;;8.30;;
6203;SDS011;3135;42.602;23.468;2023-05-07T03:37:39;15.80;;;9.05;;
6203;SDS011;3135;42.602;23.468;2023-05-07T03:40:05;17.13;;;8.70;;
6203;SDS011;3135;42.602;23.468;2023-05-07T03:42:31;18.10;;;9.57;;
6203;SDS011;3135;42.602;23.468;2023-05-07T03:44:57;17.10;;;8.98;;
6203;SDS011;3135;42.602;23.468;2023-05-07T03:47:22;19.20;;;10.10;;
6203;SDS011;3135;42.602;23.468;2023-05-07T03:49:48;17.33;;;9.30;;
6203;SDS011;3135;42.602;23.468;2023-05-07T03:52:14;21.67;;;9.98;;
6203;SDS011;3135;42.602;23.468;2023-05-07T03:54:40;19.70;;;10.25;;
6203;SDS011;3135;42.602;23.468;2023-05-07T03:57:05;19.48;;;9.63;;
6203;SDS011;3135;42.602;23.468;2023-05-07T03:59:31;19.83;;;9.77;;
6203;SDS011;3135;42.602;23.468;2023-05-07T04:01:56;19.23;;;10.10;;
6203;SDS011;3135;42.602;23.468;2023-05-07T04:04:22;18.97;;;9.90;;
6203;SDS011;3135;42.602;23.468;2023-05-07T04:06:47;19.73;;;9.97;;
6203;SDS011;3135;42.602;23.468;2023-05-07T04:09:12;18.37;;;9.77;;
6203;SDS011;3135;42.602;23.468;2023-05-07T04:11:38;20.17;;;10.53;;
6203;SDS011;3135;42.602;23.468;2023-05-07T04:14:05;19.53;;;9.97;;
6203;SDS011;3135;42.602;23.468;2023-05-07T04:16:31;20.60;;;9.50;;
6203;SDS011;3135;42.602;23.468;2023-05-07T04:18:56;18.45;;;9.10;;
6203;SDS011;3135;42.602;23.468;2023-05-07T04:21:21;19.05;;;9.73;;
6203;SDS011;3135;42.602;23.468;2023-05-07T04:23:47;14.98;;;7.40;;
6203;SDS011;3135;42.602;23.468;2023-05-07T04:26:13;17.58;;;9.98;;
6203;SDS011;3135;42.602;23.468;2023-05-07T04:28:39;19.30;;;10.10;;
6203;SDS011;3135;42.602;23.468;2023-05-07T04:31:05;18.57;;;10.30;;
6203;SDS011;3135;42.602;23.468;2023-05-07T04:33:31;18.17;;;10.40;;
6203;SDS011;3135;42.602;23.468;2023-05-07T04:35:58;18.40;;;10.40;;
6203;SDS011;3135;42.602;23.468;2023-05-07T04:38:28;16.02;;;8.90;;
6203;SDS011;3135;42.602;23.468;2023-05-07T04:40:55;16.02;;;9.25;;
6203;SDS011;3135;42.602;23.468;2023-05-07T04:43:21;18.58;;;9.20;;
6203;SDS011;3135;42.602;23.468;2023-05-07T04:45:46;15.70;;;8.87;;
6203;SDS011;3135;42.602;23.468;2023-05-07T04:48:11;13.70;;;7.90;;
6203;SDS011;3135;42.602;23.468;2023-05-07T04:50:39;15.55;;;9.07;;
6203;SDS011;3135;42.602;23.468;2023-05-07T04:53:05;16.20;;;8.90;;
6203;SDS011;3135;42.602;23.468;2023-05-07T04:55:30;15.93;;;8.93;;
6203;SDS011;3135;42.602;23.468;2023-05-07T04:57:55;13.80;;;8.43;;
6203;SDS011;3135;42.602;23.468;2023-05-07T05:00:21;14.10;;;8.73;;
6203;SDS011;3135;42.602;23.468;2023-05-07T05:02:47;16.83;;;8.68;;
6203;SDS011;3135;42.602;23.468;2023-05-07T05:05:13;14.70;;;8.87;;
6203;SDS011;3135;42.602;23.468;2023-05-07T05:07:38;15.03;;;8.47;;
6203;SDS011;3135;42.602;23.468;2023-05-07T05:10:04;13.20;;;8.05;;
6203;SDS011;3135;42.602;23.468;2023-05-07T05:12:30;16.13;;;9.13;;
6203;SDS011;3135;42.602;23.468;2023-05-07T05:14:56;16.05;;;8.40;;
6203;SDS011;3135;42.602;23.468;2023-05-07T05:17:22;12.87;;;7.50;;
6203;SDS011;3135;42.602;23.468;2023-05-07T05:19:47;15.67;;;8.90;;
6203;SDS011;3135;42.602;23.468;2023-05-07T05:22:12;15.52;;;8.93;;
6203;SDS011;3135;42.602;23.468;2023-05-07T05:24:38;16.58;;;8.77;;
6203;SDS011;3135;42.602;23.468;2023-05-07T05:27:03;17.27;;;8.60;;
6203;SDS011;3135;42.602;23.468;2023-05-07T05:29:29;16.00;;;8.70;;
6203;SDS011;3135;42.602;23.468;2023-05-07T05:31:56;12.48;;;8.32;;
6203;SDS011;3135;42.602;23.468;2023-05-07T05:34:21;14.97;;;9.00;;
6203;SDS011;3135;42.602;23.468;2023-05-07T05:36:47;14.83;;;8.27;;
6203;SDS011;3135;42.602;23.468;2023-05-07T05:39:13;14.75;;;8.65;;
6203;SDS011;3135;42.602;23.468;2023-05-07T05:41:39;14.17;;;8.90;;
6203;SDS011;3135;42.602;23.468;2023-05-07T05:44:04;14.80;;;8.50;;
6203;SDS011;3135;42.602;23.468;2023-05-07T05:46:30;13.70;;;8.70;;
6203;SDS011;3135;42.602;23.468;2023-05-07T05:48:55;14.67;;;8.90;;
6203;SDS011;3135;42.602;23.468;2023-05-07T05:51:21;15.77;;;8.98;;
6203;SDS011;3135;42.602;23.468;2023-05-07T05:53:48;13.45;;;8.52;;
6203;SDS011;3135;42.602;23.468;2023-05-07T05:56:13;19.27;;;8.50;;
6203;SDS011;3135;42.602;23.468;2023-05-07T05:58:41;15.13;;;9.07;;
6203;SDS011;3135;42.602;23.468;2023-05-07T06:01:06;14.00;;;8.53;;
6203;SDS011;3135;42.602;23.468;2023-05-07T06:03:32;18.75;;;9.35;;
6203;SDS011;3135;42.602;23.468;2023-05-07T06:05:58;15.82;;;9.07;;
6203;SDS011;3135;42.602;23.468;2023-05-07T06:08:25;18.80;;;8.75;;
6203;SDS011;3135;42.602;23.468;2023-05-07T06:10:50;16.03;;;8.90;;
6203;SDS011;3135;42.602;23.468;2023-05-07T06:13:16;16.50;;;9.60;;
6203;SDS011;3135;42.602;23.468;2023-05-07T06:15:41;15.47;;;9.33;;
6203;SDS011;3135;42.602;23.468;2023-05-07T06:18:07;16.00;;;8.90;;
6203;SDS011;3135;42.602;23.468;2023-05-07T06:20:32;15.43;;;9.13;;
6203;SDS011;3135;42.602;23.468;2023-05-07T06:22:57;15.03;;;8.33;;
6203;SDS011;3135;42.602;23.468;2023-05-07T06:25:23;15.73;;;8.80;;
6203;SDS011;3135;42.602;23.468;2023-05-07T06:27:48;12.90;;;8.17;;
6203;SDS011;3135;42.602;23.468;2023-05-07T06:30:14;13.03;;;7.90;;
6203;SDS011;3135;42.602;23.468;2023-05-07T06:32:40;13.60;;;8.07;;
6203;SDS011;3135;42.602;23.468;2023-05-07T06:35:06;15.13;;;8.03;;
6203;SDS011;3135;42.602;23.468;2023-05-07T06:37:31;12.10;;;7.93;;
6203;SDS011;3135;42.602;23.468;2023-05-07T06:39:57;14.13;;;7.70;;
6203;SDS011;3135;42.602;23.468;2023-05-07T06:42:22;13.17;;;7.73;;
6203;SDS011;3135;42.602;23.468;2023-05-07T06:44:47;11.70;;;7.47;;
6203;SDS011;3135;42.602;23.468;2023-05-07T06:47:13;14.25;;;7.80;;
6203;SDS011;3135;42.602;23.468;2023-05-07T06:49:38;11.57;;;7.37;;
6203;SDS011;3135;42.602;23.468;2023-05-07T06:52:04;11.13;;;7.10;;
6203;SDS011;3135;42.602;23.468;2023-05-07T06:54:29;12.23;;;7.60;;
6203;SDS011;3135;42.602;23.468;2023-05-07T06:56:55;11.10;;;7.03;;
6203;SDS011;3135;42.602;23.468;2023-05-07T06:59:20;11.20;;;7.10;;
6203;SDS011;3135;42.602;23.468;2023-05-07T07:01:46;13.30;;;7.18;;
6203;SDS011;3135;42.602;23.468;2023-05-07T07:04:11;13.33;;;7.50;;
6203;SDS011;3135;42.602;23.468;2023-05-07T07:06:36;9.50;;;6.93;;
6203;SDS011;3135;42.602;23.468;2023-05-07T07:09:02;11.87;;;7.30;;
6203;SDS011;3135;42.602;23.468;2023-05-07T07:11:27;10.18;;;6.90;;
6203;SDS011;3135;42.602;23.468;2023-05-07T07:13:53;10.87;;;7.00;;
6203;SDS011;3135;42.602;23.468;2023-05-07T07:16:19;12.07;;;6.97;;
6203;SDS011;3135;42.602;23.468;2023-05-07T07:18:48;10.63;;;6.85;;
6203;SDS011;3135;42.602;23.468;2023-05-07T07:21:13;11.97;;;7.20;;
6203;SDS011;3135;42.602;23.468;2023-05-07T07:23:39;11.60;;;7.03;;
6203;SDS011;3135;42.602;23.468;2023-05-07T07:26:04;9.83;;;7.00;;
6203;SDS011;3135;42.602;23.468;2023-05-07T07:28:31;12.50;;;6.93;;
6203;SDS011;3135;42.602;23.468;2023-05-07T07:30:56;10.50;;;6.40;;
6203;SDS011;3135;42.602;23.468;2023-05-07T07:33:21;12.68;;;6.85;;
6203;SDS011;3135;42.602;23.468;2023-05-07T07:35:47;9.60;;;6.83;;
6203;SDS011;3135;42.602;23.468;2023-05-07T07:38:12;10.07;;;6.70;;
6203;SDS011;3135;42.602;23.468;2023-05-07T07:40:38;12.73;;;7.47;;
6203;SDS011;3135;42.602;23.468;2023-05-07T07:43:04;9.32;;;6.70;;
6203;SDS011;3135;42.602;23.468;2023-05-07T07:45:31;10.43;;;6.60;;
6203;SDS011;3135;42.602;23.468;2023-05-07T07:47:56;11.47;;;6.70;;
6203;SDS011;3135;42.602;23.468;2023-05-07T07:50:21;12.23;;;7.00;;
6203;SDS011;3135;42.602;23.468;2023-05-07T07:52:48;11.85;;;7.07;;
6203;SDS011;3135;42.602;23.468;2023-05-07T07:55:13;10.40;;;6.73;;
6203;SDS011;3135;42.602;23.468;2023-05-07T07:57:43;10.50;;;7.07;;
6203;SDS011;3135;42.602;23.468;2023-05-07T08:00:08;10.07;;;7.05;;
6203;SDS011;3135;42.602;23.468;2023-05-07T08:02:34;12.80;;;6.90;;
6203;SDS011;3135;42.602;23.468;2023-05-07T08:04:59;11.88;;;7.22;;
6203;SDS011;3135;42.602;23.468;2023-05-07T08:07:25;8.10;;;6.17;;
6203;SDS011;3135;42.602;23.468;2023-05-07T08:09:50;10.63;;;6.63;;
6203;SDS011;3135;42.602;23.468;2023-05-07T08:12:16;11.65;;;6.72;;
6203;SDS011;3135;42.602;23.468;2023-05-07T08:14:41;9.02;;;6.25;;
6203;SDS011;3135;42.602;23.468;2023-05-07T08:17:07;9.67;;;6.40;;
6203;SDS011;3135;42.602;23.468;2023-05-07T08:19:34;9.07;;;6.50;;
6203;SDS011;3135;42.602;23.468;2023-05-07T08:22:00;8.93;;;6.68;;
6203;SDS011;3135;42.602;23.468;2023-05-07T08:24:27;10.00;;;6.38;;
6203;SDS011;3135;42.602;23.468;2023-05-07T08:26:53;11.50;;;6.83;;
6203;SDS011;3135;42.602;23.468;2023-05-07T08:29:18;8.07;;;6.40;;
6203;SDS011;3135;42.602;23.468;2023-05-07T08:31:44;8.40;;;6.15;;
6203;SDS011;3135;42.602;23.468;2023-05-07T08:34:10;11.13;;;6.80;;
6203;SDS011;3135;42.602;23.468;2023-05-07T08:36:35;8.37;;;5.97;;
6203;SDS011;3135;42.602;23.468;2023-05-07T08:39:01;8.05;;;5.93;;
6203;SDS011;3135;42.602;23.468;2023-05-07T08:41:27;7.45;;;5.90;;
6203;SDS011;3135;42.602;23.468;2023-05-07T08:43:53;8.93;;;5.77;;
6203;SDS011;3135;42.602;23.468;2023-05-07T08:46:22;9.65;;;5.60;;
6203;SDS011;3135;42.602;23.468;2023-05-07T08:48:50;9.68;;;5.45;;
6203;SDS011;3135;42.602;23.468;2023-05-07T08:51:20;8.52;;;5.22;;
6203;SDS011;3135;42.602;23.468;2023-05-07T08:53:46;9.38;;;5.28;;
6203;SDS011;3135;42.602;23.468;2023-05-07T08:56:13;7.80;;;5.13;;
6203;SDS011;3135;42.602;23.468;2023-05-07T08:58:40;5.63;;;4.82;;
6203;SDS011;3135;42.602;23.468;2023-05-07T09:01:07;8.90;;;5.00;;
6203;SDS011;3135;42.602;23.468;2023-05-07T09:03:34;6.60;;;4.75;;
6203;SDS011;3135;42.602;23.468;2023-05-07T09:06:01;4.63;;;3.90;;
6203;SDS011;3135;42.602;23.468;2023-05-07T09:08:26;5.47;;;3.80;;
6203;SDS011;3135;42.602;23.468;2023-05-07T09:10:52;5.13;;;4.20;;
6203;SDS011;3135;42.602;23.468;2023-05-07T09:13:18;4.28;;;3.55;;
6203;SDS011;3135;42.602;23.468;2023-05-07T09:15:44;3.17;;;2.70;;
6203;SDS011;3135;42.602;23.468;2023-05-07T09:18:09;6.00;;;3.30;;
6203;SDS011;3135;42.602;23.468;2023-05-07T09:20:38;2.90;;;2.70;;
6203;SDS011;3135;42.602;23.468;2023-05-07T09:23:05;3.63;;;2.20;;
6203;SDS011;3135;42.602;23.468;2023-05-07T09:25:32;3.20;;;2.90;;
6203;SDS011;3135;42.602;23.468;2023-05-07T09:27:59;4.05;;;3.05;;
6203;SDS011;3135;42.602;23.468;2023-05-07T09:30:28;3.80;;;3.07;;
6203;SDS011;3135;42.602;23.468;2023-05-07T09:32:55;3.67;;;3.00;;
6203;SDS011;3135;42.602;23.468;2023-05-07T09:35:21;7.47;;;3.20;;
6203;SDS011;3135;42.602;23.468;2023-05-07T09:37:49;3.30;;;3.00;;
6203;SDS011;3135;42.602;23.468;2023-05-07T09:40:28;3.70;;;3.30;;
6203;SDS011;3135;42.602;23.468;2023-05-07T09:42:55;3.50;;;3.00;;
6203;SDS011;3135;42.602;23.468;2023-05-07T09:45:27;4.63;;;3.00;;
6203;SDS011;3135;42.602;23.468;2023-05-07T09:47:54;3.30;;;3.00;;
6203;SDS011;3135;42.602;23.468;2023-05-07T09:50:25;3.78;;;2.70;;
6203;SDS011;3135;42.602;23.468;2023-05-07T09:52:54;3.00;;;2.50;;
6203;SDS011;3135;42.602;23.468;2023-05-07T09:55:21;2.90;;;2.70;;
6203;SDS011;3135;42.602;23.468;2023-05-07T09:57:48;3.37;;;2.67;;
6203;SDS011;3135;42.602;23.468;2023-05-07T10:00:15;3.95;;;2.70;;
6203;SDS011;3135;42.602;23.468;2023-05-07T10:02:44;3.47;;;2.80;;
6203;SDS011;3135;42.602;23.468;2023-05-07T10:05:14;3.60;;;2.50;;
6203;SDS011;3135;42.602;23.468;2023-05-07T10:07:40;3.00;;;2.70;;
6203;SDS011;3135;42.602;23.468;2023-05-07T10:10:06;4.38;;;2.88;;
6203;SDS011;3135;42.602;23.468;2023-05-07T10:12:32;4.53;;;3.10;;
6203;SDS011;3135;42.602;23.468;2023-05-07T10:15:04;3.03;;;2.35;;
6203;SDS011;3135;42.602;23.468;2023-05-07T10:17:31;3.53;;;2.58;;
6203;SDS011;3135;42.602;23.468;2023-05-07T10:19:57;2.63;;;2.43;;
6203;SDS011;3135;42.602;23.468;2023-05-07T10:22:23;3.63;;;2.50;;
6203;SDS011;3135;42.602;23.468;2023-05-07T10:24:51;4.55;;;2.00;;
6203;SDS011;3135;42.602;23.468;2023-05-07T10:27:19;2.65;;;2.50;;
6203;SDS011;3135;42.602;23.468;2023-05-07T10:29:53;2.97;;;2.35;;
6203;SDS011;3135;42.602;23.468;2023-05-07T10:35:26;2.95;;;2.40;;
6203;SDS011;3135;42.602;23.468;2023-05-07T10:37:54;3.05;;;2.40;;
6203;SDS011;3135;42.602;23.468;2023-05-07T10:40:20;4.10;;;2.70;;
6203;SDS011;3135;42.602;23.468;2023-05-07T10:42:53;3.30;;;2.65;;
6203;SDS011;3135;42.602;23.468;2023-05-07T10:45:22;2.65;;;2.10;;
6203;SDS011;3135;42.602;23.468;2023-05-07T10:48:07;2.38;;;2.17;;
6203;SDS011;3135;42.602;23.468;2023-05-07T10:50:34;9.95;;;2.90;;
6203;SDS011;3135;42.602;23.468;2023-05-07T10:55:48;2.55;;;2.35;;
6203;SDS011;3135;42.602;23.468;2023-05-07T11:00:46;2.42;;;2.22;;
6203;SDS011;3135;42.602;23.468;2023-05-07T11:03:12;4.03;;;3.00;;
6203;SDS011;3135;42.602;23.468;2023-05-07T11:05:39;4.68;;;2.35;;
6203;SDS011;3135;42.602;23.468;2023-05-07T11:08:05;5.70;;;2.70;;
6203;SDS011;3135;42.602;23.468;2023-05-07T11:13:15;3.20;;;2.70;;
6203;SDS011;3135;42.602;23.468;2023-05-07T11:15:45;4.95;;;2.88;;
6203;SDS011;3135;42.602;23.468;2023-05-07T11:18:13;2.92;;;2.67;;
6203;SDS011;3135;42.602;23.468;2023-05-07T11:20:46;3.10;;;2.80;;
6203;SDS011;3135;42.602;23.468;2023-05-07T11:26:05;3.05;;;2.75;;
6203;SDS011;3135;42.602;23.468;2023-05-07T11:28:36;3.80;;;3.15;;
6203;SDS011;3135;42.602;23.468;2023-05-07T11:31:03;3.47;;;2.78;;
6203;SDS011;3135;42.602;23.468;2023-05-07T11:33:29;3.87;;;3.13;;
6203;SDS011;3135;42.602;23.468;2023-05-07T11:35:55;3.60;;;2.80;;
6203;SDS011;3135;42.602;23.468;2023-05-07T11:38:22;3.05;;;2.78;;
6203;SDS011;3135;42.602;23.468;2023-05-07T11:40:57;4.22;;;2.88;;
6203;SDS011;3135;42.602;23.468;2023-05-07T11:43:25;3.10;;;2.80;;
6203;SDS011;3135;42.602;23.468;2023-05-07T11:45:51;3.35;;;3.05;;
6203;SDS011;3135;42.602;23.468;2023-05-07T11:48:17;3.80;;;3.20;;
6203;SDS011;3135;42.602;23.468;2023-05-07T11:53:27;3.78;;;3.47;;
6203;SDS011;3135;42.602;23.468;2023-05-07T11:56:00;6.88;;;3.63;;
6203;SDS011;3135;42.602;23.468;2023-05-07T11:58:31;4.90;;;3.45;;
6203;SDS011;3135;42.602;23.468;2023-05-07T12:00:57;3.50;;;3.20;;
6203;SDS011;3135;42.602;23.468;2023-05-07T12:03:22;14.07;;;3.77;;
6203;SDS011;3135;42.602;23.468;2023-05-07T12:05:48;3.83;;;3.50;;
6203;SDS011;3135;42.602;23.468;2023-05-07T12:08:14;4.03;;;3.65;;
6203;SDS011;3135;42.602;23.468;2023-05-07T12:10:41;3.72;;;3.42;;
6203;SDS011;3135;42.602;23.468;2023-05-07T12:13:17;5.28;;;3.70;;
6203;SDS011;3135;42.602;23.468;2023-05-07T12:15:44;5.63;;;3.67;;
6203;SDS011;3135;42.602;23.468;2023-05-07T12:18:12;4.93;;;4.40;;
6203;SDS011;3135;42.602;23.468;2023-05-07T12:20:39;5.22;;;3.88;;
6203;SDS011;3135;42.602;23.468;2023-05-07T12:23:05;4.75;;;3.78;;
6203;SDS011;3135;42.602;23.468;2023-05-07T12:25:40;5.03;;;4.05;;
6203;SDS011;3135;42.602;23.468;2023-05-07T12:28:14;4.22;;;3.90;;
6203;SDS011;3135;42.602;23.468;2023-05-07T12:30:44;4.00;;;3.70;;
6203;SDS011;3135;42.602;23.468;2023-05-07T12:33:11;4.43;;;3.83;;
6203;SDS011;3135;42.602;23.468;2023-05-07T12:35:38;6.15;;;4.15;;
6203;SDS011;3135;42.602;23.468;2023-05-07T12:38:15;4.32;;;3.92;;
6203;SDS011;3135;42.602;23.468;2023-05-07T12:40:43;6.40;;;4.15;;
6203;SDS011;3135;42.602;23.468;2023-05-07T12:45:46;5.05;;;4.18;;
6203;SDS011;3135;42.602;23.468;2023-05-07T12:48:13;6.80;;;3.58;;
6203;SDS011;3135;42.602;23.468;2023-05-07T12:50:38;5.28;;;4.22;;
6203;SDS011;3135;42.602;23.468;2023-05-07T12:53:04;5.07;;;4.27;;
6203;SDS011;3135;42.602;23.468;2023-05-07T12:55:31;4.60;;;4.20;;
6203;SDS011;3135;42.602;23.468;2023-05-07T12:58:00;4.70;;;4.30;;
6203;SDS011;3135;42.602;23.468;2023-05-07T13:00:38;6.68;;;4.60;;
6203;SDS011;3135;42.602;23.468;2023-05-07T13:03:04;8.88;;;4.03;;
6203;SDS011;3135;42.602;23.468;2023-05-07T13:05:30;4.20;;;3.90;;
6203;SDS011;3135;42.602;23.468;2023-05-07T13:07:57;5.55;;;4.10;;
6203;SDS011;3135;42.602;23.468;2023-05-07T13:10:23;4.28;;;3.95;;
6203;SDS011;3135;42.602;23.468;2023-05-07T13:12:49;4.30;;;3.90;;
6203;SDS011;3135;42.602;23.468;2023-05-07T13:15:15;5.43;;;4.47;;
6203;SDS011;3135;42.602;23.468;2023-05-07T13:17:41;5.93;;;4.75;;
6203;SDS011;3135;42.602;23.468;2023-05-07T13:20:08;4.57;;;4.17;;
6203;SDS011;3135;42.602;23.468;2023-05-07T13:22:34;6.60;;;4.32;;
6203;SDS011;3135;42.602;23.468;2023-05-07T13:25:00;6.65;;;4.30;;
6203;SDS011;3135;42.602;23.468;2023-05-07T13:27:26;5.17;;;4.10;;
6203;SDS011;3135;42.602;23.468;2023-05-07T13:29:51;4.32;;;3.90;;
6203;SDS011;3135;42.602;23.468;2023-05-07T13:32:17;4.33;;;3.97;;
6203;SDS011;3135;42.602;23.468;2023-05-07T13:34:42;4.57;;;4.17;;
6203;SDS011;3135;42.602;23.468;2023-05-07T13:37:08;4.80;;;4.23;;
6203;SDS011;3135;42.602;23.468;2023-05-07T13:39:33;4.47;;;4.00;;
6203;SDS011;3135;42.602;23.468;2023-05-07T13:41:59;6.40;;;4.30;;
6203;SDS011;3135;42.602;23.468;2023-05-07T13:44:24;6.85;;;4.25;;
6203;SDS011;3135;42.602;23.468;2023-05-07T13:46:50;6.13;;;4.40;;
6203;SDS011;3135;42.602;23.468;2023-05-07T13:49:16;4.63;;;4.15;;
6203;SDS011;3135;42.602;23.468;2023-05-07T13:51:41;6.67;;;4.07;;
6203;SDS011;3135;42.602;23.468;2023-05-07T13:54:07;4.60;;;4.20;;
6203;SDS011;3135;42.602;23.468;2023-05-07T13:56:32;4.10;;;3.70;;
6203;SDS011;3135;42.602;23.468;2023-05-07T13:58:58;3.90;;;3.60;;
6203;SDS011;3135;42.602;23.468;2023-05-07T14:01:23;7.27;;;3.90;;
6203;SDS011;3135;42.602;23.468;2023-05-07T14:03:49;5.78;;;3.80;;
6203;SDS011;3135;42.602;23.468;2023-05-07T14:06:14;4.33;;;4.00;;
6203;SDS011;3135;42.602;23.468;2023-05-07T14:08:40;4.43;;;4.03;;
6203;SDS011;3135;42.602;23.468;2023-05-07T14:11:05;4.22;;;3.70;;
6203;SDS011;3135;42.602;23.468;2023-05-07T14:13:31;3.80;;;3.50;;
6203;SDS011;3135;42.602;23.468;2023-05-07T14:15:57;4.60;;;3.13;;
6203;SDS011;3135;42.602;23.468;2023-05-07T14:18:23;3.67;;;3.25;;
6203;SDS011;3135;42.602;23.468;2023-05-07T14:20:48;4.80;;;3.70;;
6203;SDS011;3135;42.602;23.468;2023-05-07T14:23:14;3.55;;;3.25;;
6203;SDS011;3135;42.602;23.468;2023-05-07T14:25:40;4.30;;;3.40;;
6203;SDS011;3135;42.602;23.468;2023-05-07T14:28:06;3.92;;;3.30;;
6203;SDS011;3135;42.602;23.468;2023-05-07T14:30:31;4.93;;;4.43;;
6203;SDS011;3135;42.602;23.468;2023-05-07T14:32:57;3.77;;;3.27;;
6203;SDS011;3135;42.602;23.468;2023-05-07T14:35:22;5.30;;;3.33;;
6203;SDS011;3135;42.602;23.468;2023-05-07T14:37:48;5.20;;;3.27;;
6203;SDS011;3135;42.602;23.468;2023-05-07T14:40:13;4.60;;;3.40;;
6203;SDS011;3135;42.602;23.468;2023-05-07T14:42:39;3.25;;;2.95;;
6203;SDS011;3135;42.602;23.468;2023-05-07T14:45:05;3.17;;;2.97;;
6203;SDS011;3135;42.602;23.468;2023-05-07T14:47:31;9.07;;;3.30;;
6203;SDS011;3135;42.602;23.468;2023-05-07T14:49:56;3.78;;;3.47;;
6203;SDS011;3135;42.602;23.468;2023-05-07T14:52:23;3.33;;;3.00;;
6203;SDS011;3135;42.602;23.468;2023-05-07T14:54:48;3.20;;;3.00;;
6203;SDS011;3135;42.602;23.468;2023-05-07T14:57:14;4.27;;;3.10;;
6203;SDS011;3135;42.602;23.468;2023-05-07T14:59:41;3.30;;;2.90;;
6203;SDS011;3135;42.602;23.468;2023-05-07T15:02:07;2.83;;;2.63;;
6203;SDS011;3135;42.602;23.468;2023-05-07T15:04:33;3.10;;;2.90;;
6203;SDS011;3135;42.602;23.468;2023-05-07T15:06:59;3.08;;;2.70;;